Time;durP1;ratioP1;P1;durP2;ratioP2;P2;SDS_P1;SDS_P2;PMS_P1;PMS_P2;Temp;Humidity;BMP_temperature;BMP_pressure;BME280_temperature;BME280_humidity;BME280_pressure;Samples;Min_cycle;Max_cycle;Signal;HPM_P1;HPM_P2
2022/09/28 00:00:05;;;;;;;;;;;;;;;7.20;100.00;99508.84;5048062;28;19972;-74
2022/09/28 00:02:31;;;;;;;;;;;;;;;7.18;100.00;99511.56;5045594;28;20295;-73
2022/09/28 00:04:56;;;;;;;;;;;;;;;7.17;100.00;99511.63;5048438;28;20277;-73
2022/09/28 00:07:22;;;;;;;;;;;;;;;7.15;100.00;99511.69;5048697;28;19971;-73
2022/09/28 00:09:47;;;;;;;;;;;;;;;7.15;100.00;99511.69;5048222;28;19935;-73
2022/09/28 00:12:12;;;;;;;;;;;;;;;7.14;100.00;99509.16;5062765;28;19955;-72
2022/09/28 00:14:39;;;;;;;;;;;;;;;7.14;100.00;99510.00;5045691;28;20027;-73
2022/09/28 00:17:04;;;;;;;;;;;;;;;7.14;100.00;99510.00;5064418;28;20011;-73
2022/09/28 00:19:30;;;;;;;;;;;;;;;7.15;100.00;99511.69;5063392;28;20006;-73
2022/09/28 00:21:55;;;;;;;;;;;;;;;7.15;100.00;99509.06;5047989;28;19979;-72
2022/09/28 00:24:21;;;;;;;;;;;;;;;7.14;100.00;99510.00;5046308;28;19939;-75
2022/09/28 00:26:50;;;;;;;;;;;;;;;7.15;100.00;99509.06;5048353;28;21701;-73
2022/09/28 00:29:15;;;;;;;;;;;;;;;7.14;100.00;99510.00;5046639;28;19939;-74
2022/09/28 00:31:41;;;;;;;;;;;;;;;7.14;100.00;99510.00;5048196;28;19928;-74
2022/09/28 00:34:06;;;;;;;;;;;;;;;7.15;100.00;99502.97;5047277;28;20019;-73
2022/09/28 00:36:32;;;;;;;;;;;;;;;7.15;100.00;99503.81;5045922;28;20828;-73
2022/09/28 00:38:58;;;;;;;;;;;;;;;7.15;100.00;99498.53;5045813;28;19929;-73
2022/09/28 00:41:24;;;;;;;;;;;;;;;7.15;100.00;99495.06;5046069;28;20261;-72
2022/09/28 00:43:49;;;;;;;;;;;;;;;7.18;100.00;99501.03;5045839;28;20375;-73
2022/09/28 00:46:15;;;;;;;;;;;;;;;7.21;100.00;99494.75;5049814;28;20026;-73
2022/09/28 00:48:42;;;;;;;;;;;;;;;7.23;100.00;99492.88;5050549;28;19925;-72
2022/09/28 00:51:08;;;;;;;;;;;;;;;7.23;100.00;99499.94;5066875;28;21301;-73
2022/09/28 00:53:34;;;;;;;;;;;;;;;7.22;100.00;99485.91;5049758;28;19928;-73
2022/09/28 00:56:02;;;;;;;;;;;;;;;7.24;100.00;99491.09;5048720;28;19929;-73
2022/09/28 00:58:32;;;;;;;;;;;;;;;7.24;100.00;99481.41;5049884;28;19932;-73
2022/09/28 01:00:58;;;;;;;;;;;;;;;7.25;100.00;99483.09;5049403;28;19932;-73
2022/09/28 01:03:24;;;;;;;;;;;;;;;7.23;100.00;99484.97;5052079;28;20390;-73
2022/09/28 01:05:49;;;;;;;;;;;;;;;7.21;100.00;99481.59;5051874;28;20031;-74
2022/09/28 01:08:15;;;;;;;;;;;;;;;7.23;100.00;99481.50;5049845;28;20268;-73
2022/09/28 01:10:42;;;;;;;;;;;;;;;7.21;100.00;99476.31;5049948;28;19928;-73
2022/09/28 01:13:07;;;;;;;;;;;;;;;7.19;100.00;99473.75;5048314;28;19932;-73
2022/09/28 01:15:33;;;;;;;;;;;;;;;7.19;100.00;99471.13;5048900;28;19931;-73
2022/09/28 01:18:14;;;;;;;;;;;;;;;7.16;100.00;99476.56;5049102;28;19947;-73
2022/09/28 01:20:46;;;;;;;;;;;;;;;7.15;100.00;99469.59;5050508;28;20398;-73
2022/09/28 01:23:30;;;;;;;;;;;;;;;7.15;100.00;99474.00;5048072;28;19928;-73
2022/09/28 01:26:14;;;;;;;;;;;;;;;7.14;100.00;99473.16;5050107;28;20150;-73
2022/09/28 01:28:40;;;;;;;;;;;;;;;7.13;100.00;99468.00;5051482;28;19977;-73
2022/09/28 01:31:10;;;;;;;;;;;;;;;7.10;100.00;99458.47;5065511;28;19944;-73
2022/09/28 01:33:43;;;;;;;;;;;;;;;7.10;100.00;99463.75;5049369;28;20006;-73
2022/09/28 01:36:16;;;;;;;;;;;;;;;7.10;100.00;99460.25;5030344;28;19928;-73
2022/09/28 01:38:43;;;;;;;;;;;;;;;7.11;100.00;99470.69;5049931;28;19935;-73
2022/09/28 01:41:09;;;;;;;;;;;;;;;7.11;100.00;99470.69;5049898;28;19990;-73
2022/09/28 01:43:35;;;;;;;;;;;;;;;7.10;100.00;99468.13;5050103;28;19929;-73
2022/09/28 01:46:03;;;;;;;;;;;;;;;7.08;100.00;99468.22;5051203;28;19935;-73
2022/09/28 01:48:34;;;;;;;;;;;;;;;7.09;100.00;99469.06;5065551;28;19924;-73
2022/09/28 01:51:01;;;;;;;;;;;;;;;7.10;100.00;99471.63;5049249;28;19985;-73
2022/09/28 01:53:29;;;;;;;;;;;;;;;7.09;100.00;99475.19;5065648;28;19931;-73
2022/09/28 01:55:56;;;;;;;;;;;;;;;7.10;100.00;99471.63;5048677;28;20027;-74
2022/09/28 01:58:21;;;;;;;;;;;;;;;7.11;100.00;99473.31;5050199;28;19981;-73
2022/09/28 02:00:48;;;;;;;;;;;;;;;7.12;100.00;99472.38;5050498;28;20480;-74
2022/09/28 02:03:15;;;;;;;;;;;;;;;7.13;100.00;99476.72;5050432;28;19925;-73
2022/09/28 02:05:41;;;;;;;;;;;;;;;7.13;100.00;99476.72;5048318;28;19931;-73
2022/09/28 02:08:08;;;;;;;;;;;;;;;7.15;100.00;99474.00;5048512;28;19955;-73
2022/09/28 02:10:36;;;;;;;;;;;;;;;7.15;100.00;99479.28;5049504;28;19928;-73
2022/09/28 02:13:04;;;;;;;;;;;;;;;7.15;100.00;99474.00;5049793;28;19923;-73
2022/09/28 02:15:32;;;;;;;;;;;;;;;7.15;100.00;99474.00;5049330;28;19931;-73
2022/09/28 02:17:58;;;;;;;;;;;;;;;7.17;100.00;99483.53;5064728;28;19928;-73
2022/09/28 02:20:23;;;;;;;;;;;;;;;7.18;100.00;99484.38;5048870;28;20207;-73
2022/09/28 02:22:49;;;;;;;;;;;;;;;7.19;100.00;99480.78;5048770;28;19987;-73
2022/09/28 02:25:30;;;;;;;;;;;;;;;7.20;100.00;99478.09;5049109;28;19939;-73
2022/09/28 02:28:03;;;;;;;;;;;;;;;7.23;100.00;99486.78;5049890;28;19959;-73
2022/09/28 02:30:29;;;;;;;;;;;;;;;7.21;100.00;99473.69;5049415;28;20347;-73
2022/09/28 02:32:55;;;;;;;;;;;;;;;7.19;100.00;99479.03;5048213;28;19931;-73
2022/09/28 02:35:21;;;;;;;;;;;;;;;7.21;100.00;99478.97;5048197;28;19925;-74
2022/09/28 02:37:47;;;;;;;;;;;;;;;7.20;100.00;99475.47;5048328;28;19933;-73
2022/09/28 02:40:13;;;;;;;;;;;;;;;7.22;100.00;99478.00;5047117;28;20058;-73
2022/09/28 02:42:44;;;;;;;;;;;;;;;7.23;100.00;99476.25;5047804;28;19932;-73
2022/09/28 02:45:16;;;;;;;;;;;;;;;7.22;100.00;99483.28;5046887;28;19960;-73
2022/09/28 02:47:46;;;;;;;;;;;;;;;7.22;100.00;99469.25;5048050;28;19928;-73
2022/09/28 02:50:20;;;;;;;;;;;;;;;7.23;100.00;99478.88;5047123;28;19924;-73
2022/09/28 02:53:04;;;;;;;;;;;;;;;7.22;100.00;99472.75;5048932;28;20379;-73
2022/09/28 02:55:32;;;;;;;;;;;;;;;7.23;100.00;99484.16;5048517;28;20462;-73
2022/09/28 02:58:12;;;;;;;;;;;;;;;7.25;100.00;99480.47;5048490;28;19924;-73
2022/09/28 03:00:40;;;;;;;;;;;;;;;7.24;100.00;99473.50;5047231;28;19972;-73
2022/09/28 03:03:06;;;;;;;;;;;;;;;7.25;100.00;99477.00;5047527;28;19928;-73
2022/09/28 03:05:34;;;;;;;;;;;;;;;7.24;100.00;99472.69;5048311;28;20284;-73
2022/09/28 03:07:59;;;;;;;;;;;;;;;7.22;100.00;99480.66;5047542;28;19971;-73
2022/09/28 03:10:25;;;;;;;;;;;;;;;7.19;100.00;99470.28;5048246;28;20031;-73
2022/09/28 03:12:51;;;;;;;;;;;;;;;7.17;100.00;99480.91;5046606;28;19931;-73
2022/09/28 03:15:21;;;;;;;;;;;;;;;7.16;100.00;99486.25;5046486;28;20038;-73
2022/09/28 03:17:46;;;;;;;;;;;;;;;7.14;100.00;99475.78;5047021;28;19925;-74
2022/09/28 03:20:11;;;;;;;;;;;;;;;7.15;100.00;99480.09;5047919;28;19939;-73
2022/09/28 03:22:37;;;;;;;;;;;;;;;7.14;100.00;99483.69;5045818;28;19935;-74
2022/09/28 03:25:03;;;;;;;;;;;;;;;7.15;100.00;99487.19;5046484;28;20303;-73
2022/09/28 03:27:29;;;;;;;;;;;;;;;7.15;100.00;99484.53;5048210;28;19999;-73
2022/09/28 03:29:54;;;;;;;;;;;;;;;7.18;100.00;99487.88;5072473;28;20454;-74
2022/09/28 03:32:20;;;;;;;;;;;;;;;7.18;100.00;99482.59;5047898;28;19932;-73
2022/09/28 03:34:45;;;;;;;;;;;;;;;7.19;100.00;99486.94;5048612;28;19932;-73
2022/09/28 03:37:10;;;;;;;;;;;;;;;7.20;100.00;99482.53;5048392;28;20391;-73
2022/09/28 03:39:36;;;;;;;;;;;;;;;7.21;100.00;99484.22;5048238;28;19932;-73
2022/09/28 03:42:01;;;;;;;;;;;;;;;7.21;100.00;99484.22;5047652;28;19939;-73
2022/09/28 03:44:26;;;;;;;;;;;;;;;7.23;100.00;99484.16;5045496;28;19960;-74
2022/09/28 03:46:52;;;;;;;;;;;;;;;7.22;100.00;99485.06;5044656;28;19991;-73
2022/09/28 03:49:17;;;;;;;;;;;;;;;7.23;100.00;99482.34;5047414;28;20018;-73
2022/09/28 03:51:43;;;;;;;;;;;;;;;7.25;100.00;99474.38;5047667;28;20372;-73
2022/09/28 03:54:08;;;;;;;;;;;;;;;7.26;100.00;99476.06;5048381;28;20552;-73
2022/09/28 03:56:33;;;;;;;;;;;;;;;7.27;100.00;99478.63;5048703;28;20361;-73
2022/09/28 03:59:01;;;;;;;;;;;;;;;7.28;100.00;99479.47;5047194;28;20003;-73
2022/09/28 04:01:26;;;;;;;;;;;;;;;7.30;100.00;99477.63;5046305;28;19924;-73
2022/09/28 04:03:52;;;;;;;;;;;;;;;7.31;100.00;99476.69;5047050;28;20580;-73
2022/09/28 04:06:18;;;;;;;;;;;;;;;7.32;100.00;99481.00;5045070;28;20409;-74
2022/09/28 04:08:43;;;;;;;;;;;;;;;7.30;100.00;99480.25;5045238;28;19933;-73
2022/09/28 04:11:08;;;;;;;;;;;;;;;7.30;100.00;99481.09;5046202;28;19958;-73
2022/09/28 04:13:34;;;;;;;;;;;;;;;7.30;100.00;99485.53;5046867;28;19928;-73
2022/09/28 04:16:00;;;;;;;;;;;;;;;7.30;100.00;99485.53;5080200;28;20652;-73
2022/09/28 04:18:25;;;;;;;;;;;;;;;7.29;100.00;99489.06;5047778;28;19928;-73
2022/09/28 04:21:02;;;;;;;;;;;;;;;7.28;100.00;99487.38;5052269;28;19933;-73
2022/09/28 04:23:28;;;;;;;;;;;;;;;7.25;100.00;99493.63;5051385;28;19978;-73
2022/09/28 04:25:53;;;;;;;;;;;;;;;7.25;100.00;99490.16;5052218;28;20394;-73
2022/09/28 04:31:03;;;;;;;;;;;;;;;7.22;100.00;99487.69;5051659;28;19936;-73
2022/09/28 04:33:28;;;;;;;;;;;;;;;7.21;100.00;99489.50;5049948;28;19929;-74
2022/09/28 04:35:54;;;;;;;;;;;;;;;7.20;100.00;99493.06;5051708;28;20675;-73
2022/09/28 04:38:19;;;;;;;;;;;;;;;7.18;100.00;99487.88;5051694;28;19932;-74
2022/09/28 04:40:47;;;;;;;;;;;;;;;7.16;100.00;99495.00;5049874;28;21340;-73
2022/09/28 04:43:12;;;;;;;;;;;;;;;7.16;100.00;99492.38;5065881;28;19929;-73
2022/09/28 04:45:38;;;;;;;;;;;;;;;7.17;100.00;99493.19;5050755;28;21658;-73
2022/09/28 04:48:05;;;;;;;;;;;;;;;7.15;100.00;99488.00;5049599;28;19960;-73
2022/09/28 04:50:30;;;;;;;;;;;;;;;7.15;100.00;99495.06;5048789;28;20422;-73
2022/09/28 04:52:55;;;;;;;;;;;;;;;7.15;100.00;99495.06;5050626;28;19932;-73
2022/09/28 04:55:21;;;;;;;;;;;;;;;7.15;100.00;99490.63;5051255;28;19929;-73
2022/09/28 04:57:47;;;;;;;;;;;;;;;7.14;100.00;99491.56;5050911;28;20361;-73
2022/09/28 05:00:12;;;;;;;;;;;;;;;7.14;100.00;99488.94;5050649;28;19935;-74
2022/09/28 05:02:38;;;;;;;;;;;;;;;7.13;100.00;99492.50;5051166;28;19935;-74
2022/09/28 05:05:06;;;;;;;;;;;;;;;7.14;100.00;99496.84;5041775;28;19924;-73
2022/09/28 05:07:32;;;;;;;;;;;;;;;7.13;100.00;99487.25;5050522;28;19963;-73
2022/09/28 05:09:57;;;;;;;;;;;;;;;7.12;100.00;99490.81;5048193;28;20066;-73
2022/09/28 05:12:23;;;;;;;;;;;;;;;7.12;100.00;99490.81;5050110;28;20406;-73
2022/09/28 05:14:48;;;;;;;;;;;;;;;7.10;100.00;99487.41;5049779;28;19932;-73
2022/09/28 05:17:13;;;;;;;;;;;;;;;7.07;100.00;99488.44;5051540;28;19928;-74
2022/09/28 05:19:39;;;;;;;;;;;;;;;7.05;100.00;99489.44;5082910;28;19925;-74
2022/09/28 05:22:06;;;;;;;;;;;;;;;7.02;100.00;99486.94;5051598;28;19932;-74
2022/09/28 05:24:31;;;;;;;;;;;;;;;6.98;100.00;99490.69;5049089;28;19924;-74
2022/09/28 05:26:56;;;;;;;;;;;;;;;6.93;100.00;99483.88;5050006;28;19991;-74
2022/09/28 05:29:22;;;;;;;;;;;;;;;6.89;100.00;99484.97;5051326;28;19935;-74
2022/09/28 05:31:47;;;;;;;;;;;;;;;6.85;100.00;99493.94;5049919;28;19933;-74
2022/09/28 05:34:13;;;;;;;;;;;;;;;6.82;100.00;99493.25;5048324;28;19931;-74
2022/09/28 05:36:41;;;;;;;;;;;;;;;6.78;100.00;99490.81;5048357;28;19924;-74
2022/09/28 05:39:07;;;;;;;;;;;;;;;6.73;100.00;99489.31;5048886;28;19963;-74
2022/09/28 05:41:32;;;;;;;;;;;;;;;6.70;100.00;99489.50;5049319;28;20024;-74
2022/09/28 05:43:57;;;;;;;;;;;;;;;6.68;100.00;99486.94;5048636;28;19932;-74
2022/09/28 05:46:23;;;;;;;;;;;;;;;6.65;100.00;99490.56;5050405;28;19948;-74
2022/09/28 05:48:50;;;;;;;;;;;;;;;6.64;100.00;99491.50;5047631;28;19932;-74
2022/09/28 05:51:15;;;;;;;;;;;;;;;6.62;100.00;99490.72;5050474;28;19935;-74
2022/09/28 05:53:40;;;;;;;;;;;;;;;6.61;100.00;99488.16;5047534;28;19928;-74
2022/09/28 05:56:06;;;;;;;;;;;;;;;6.58;100.00;99485.72;5049032;28;19929;-74
2022/09/28 05:58:31;;;;;;;;;;;;;;;6.55;100.00;99488.47;5048907;28;19971;-74
2022/09/28 06:00:57;;;;;;;;;;;;;;;6.50;100.00;99492.16;5049646;28;20015;-74
2022/09/28 06:03:23;;;;;;;;;;;;;;;6.48;100.00;99494.03;5030575;28;19929;-73
2022/09/28 06:05:48;;;;;;;;;;;;;;;6.47;100.00;99496.72;5050319;28;19925;-74
2022/09/28 06:08:13;;;;;;;;;;;;;;;6.45;100.00;99495.97;5049239;28;20366;-73
2022/09/28 06:10:39;;;;;;;;;;;;;;;6.44;100.00;99499.53;5048037;28;19924;-74
2022/09/28 06:13:05;;;;;;;;;;;;;;;6.42;100.00;99501.41;5047472;28;19935;-74
2022/09/28 06:15:31;;;;;;;;;;;;;;;6.38;100.00;99493.66;5031096;28;19924;-74
2022/09/28 06:17:59;;;;;;;;;;;;;;;6.38;100.00;99493.66;5047293;28;19932;-74
2022/09/28 06:20:25;;;;;;;;;;;;;;;6.38;100.00;99493.66;5049546;28;19925;-73
2022/09/28 06:22:51;;;;;;;;;;;;;;;6.40;100.00;99498.84;5049518;28;19931;-74
2022/09/28 06:25:17;;;;;;;;;;;;;;;6.41;100.00;99500.53;5064483;28;20057;-73
2022/09/28 06:27:42;;;;;;;;;;;;;;;6.42;100.00;99501.41;5050233;28;20024;-74
2022/09/28 06:30:08;;;;;;;;;;;;;;;6.42;100.00;99496.97;5054372;28;19978;-74
2022/09/28 06:32:33;;;;;;;;;;;;;;;6.44;100.00;99504.78;5049128;28;19932;-73
2022/09/28 06:34:58;;;;;;;;;;;;;;;6.50;100.00;99507.13;5048182;28;19972;-74
2022/09/28 06:37:24;;;;;;;;;;;;;;;6.56;100.00;99508.59;5046267;28;20592;-73
2022/09/28 06:39:50;;;;;;;;;;;;;;;6.58;100.00;99507.56;5048337;28;19947;-73
2022/09/28 06:42:18;;;;;;;;;;;;;;;6.60;100.00;99510.13;5047294;28;19933;-73
2022/09/28 06:44:45;;;;;;;;;;;;;;;6.63;100.00;99518.72;5048395;28;19936;-73
2022/09/28 06:47:10;;;;;;;;;;;;;;;6.66;100.00;99515.09;5048733;28;19935;-73
2022/09/28 06:49:35;;;;;;;;;;;;;;;6.70;100.00;99519.25;5048288;28;20030;-73
2022/09/28 06:52:01;;;;;;;;;;;;;;;6.74;100.00;99522.56;5046398;28;20003;-74
2022/09/28 06:54:26;;;;;;;;;;;;;;;6.78;100.00;99518.88;5046804;28;19924;-73
2022/09/28 06:56:52;;;;;;;;;;;;;;;6.83;100.00;99521.28;5048098;28;20001;-73
2022/09/28 06:59:17;;;;;;;;;;;;;;;6.88;100.00;99524.53;5045686;28;19979;-74
2022/09/28 07:01:42;;;;;;;;;;;;;;;6.93;100.00;99530.41;5029393;28;20344;-73
2022/09/28 07:04:08;;;;;;;;;;;;;;;6.99;100.00;99529.22;5045275;28;19936;-73
2022/09/28 07:06:33;;;;;;;;;;;;;;;7.03;100.00;99528.97;5047499;28;20333;-74
2022/09/28 07:09:01;;;;;;;;;;;;;;;7.10;100.00;99539.19;5045803;28;19955;-74
2022/09/28 07:11:27;;;;;;;;;;;;;;;7.17;100.00;99544.06;5048465;28;21406;-74
2022/09/28 07:13:53;;;;;;;;;;;;;;;7.24;100.00;99535.88;5031720;28;19936;-75
2022/09/28 07:16:18;;;;;;;;;;;;;;;7.26;100.00;99540.13;5046613;28;19924;-75
2022/09/28 07:18:44;;;;;;;;;;;;;;;7.28;100.00;99537.38;5048575;28;19928;-75
2022/09/28 07:21:09;;;;;;;;;;;;;;;7.33;100.00;99548.53;5046620;28;20872;-75
2022/09/28 07:23:38;;;;;;;;;;;;;;;7.37;100.00;99549.22;5047440;28;19976;-75
2022/09/28 07:26:03;;;;;;;;;;;;;;;7.39;100.00;99550.84;5045426;28;19928;-76
2022/09/28 07:28:30;;;;;;;;;;;;;;;7.43;100.00;99555.03;5045516;28;19925;-75
2022/09/28 07:30:56;;;;;;;;;;;;;;;7.50;100.00;99552.91;5047419;28;20035;-77
2022/09/28 07:33:22;;;;;;;;;;;;;;;7.58;100.00;99555.97;5045475;28;19924;-74
2022/09/28 07:35:51;;;;;;;;;;;;;;;7.66;100.00;99552.94;5048693;28;19985;-73
2022/09/28 07:38:16;;;;;;;;;;;;;;;7.75;100.00;99554.22;5046129;28;19929;-74
2022/09/28 07:43:26;;;;;;;;;;;;;;;7.91;100.00;99558.66;5047896;28;19999;-74
2022/09/28 07:45:52;;;;;;;;;;;;;;;7.97;100.00;99560.94;5048164;28;19929;-74
2022/09/28 07:48:18;;;;;;;;;;;;;;;8.00;100.00;99561.63;5060790;28;19924;-77
2022/09/28 07:50:49;;;;;;;;;;;;;;;8.06;100.00;99563.06;5043447;28;19929;-77
2022/09/28 07:53:14;;;;;;;;;;;;;;;8.14;100.00;99570.56;5028700;28;19925;-75
2022/09/28 07:55:40;;;;;;;;;;;;;;;8.22;100.00;99564.88;5046010;28;19929;-75
2022/09/28 07:58:05;;;;;;;;;;;;;;;8.24;100.00;99569.09;5061538;28;19940;-74
2022/09/28 08:00:31;;;;;;;;;;;;;;;8.29;100.00;99572.34;5077601;28;19978;-75
2022/09/28 08:03:02;;;;;;;;;;;;;;;8.37;100.00;99573.69;5045565;28;19928;-74
2022/09/28 08:05:30;;;;;;;;;;;;;;;8.40;100.00;99574.38;5044232;28;20384;-74
2022/09/28 08:07:57;;;;;;;;;;;;;;;8.45;100.00;99571.50;5046263;28;19935;-74
2022/09/28 08:10:22;;;;;;;;;;;;;;;8.51;100.00;99580.84;5045661;28;20352;-73
2022/09/28 08:12:53;;;;;;;;;;;;;;;8.59;100.00;99580.41;5046568;28;19928;-73
2022/09/28 08:15:20;;;;;;;;;;;;;;;8.67;100.00;99576.38;5046290;28;20422;-73
2022/09/28 08:17:46;;;;;;;;;;;;;;;8.74;100.00;99583.94;5044754;28;20037;-74
2022/09/28 08:23:01;;;;;;;;;;;;;;;8.92;100.00;99579.38;5047260;28;20015;-74
2022/09/28 08:25:26;;;;;;;;;;;;;;;9.02;100.00;99584.97;5039975;28;19935;-73
2022/09/28 08:27:51;;;;;;;;;;;;;;;9.09;100.00;99586.31;5046034;28;19936;-74
2022/09/28 08:30:18;;;;;;;;;;;;;;;9.19;100.00;99589.25;5041332;28;20194;-74
2022/09/28 08:32:50;;;;;;;;;;;;;;;9.29;100.00;99592.19;5078307;28;19979;-73
2022/09/28 08:35:15;;;;;;;;;;;;;;;9.37;100.00;99588.16;5046068;28;20058;-73
2022/09/28 08:37:41;;;;;;;;;;;;;;;9.44;100.00;99593.06;5044145;28;20219;-74
2022/09/28 08:40:16;;;;;;;;;;;;;;;9.53;100.00;99589.03;5044983;28;20000;-74
2022/09/28 08:42:42;;;;;;;;;;;;;;;9.60;100.00;99596.47;5061375;28;20696;-73
2022/09/28 08:45:13;;;;;;;;;;;;;;;9.67;100.00;99602.25;5051973;28;19942;-73
2022/09/28 08:50:36;;;;;;;;;;;;;;;9.77;100.00;99597.22;5041928;28;19925;-74
2022/09/28 08:53:04;;;;;;;;;;;;;;;9.87;100.00;99603.63;5042658;28;20048;-74
2022/09/28 08:55:31;;;;;;;;;;;;;;;9.94;100.00;99608.53;5043076;28;19929;-73
2022/09/28 08:57:58;;;;;;;;;;;;;;;9.98;100.00;99610.06;5042446;28;20303;-74
2022/09/28 09:00:44;;;;;;;;;;;;;;;10.00;100.00;99608.16;5040236;28;19932;-73
2022/09/28 09:03:11;;;;;;;;;;;;;;;10.09;100.00;99618.19;5042000;28;19928;-74
2022/09/28 09:05:43;;;;;;;;;;;;;;;10.11;100.00;99610.97;5044170;28;20475;-73
2022/09/28 09:08:11;;;;;;;;;;;;;;;10.12;100.00;99612.69;5061273;28;19947;-74
2022/09/28 09:10:50;;;;;;;;;;;;;;;10.10;100.00;99617.22;5044295;28;20528;-74
2022/09/28 09:13:27;;;;;;;;;;;;;;;10.08;100.00;99616.44;5030909;28;19928;-74
2022/09/28 09:16:13;;;;;;;;;;;;;;;10.09;100.00;99620.81;5046647;28;21309;-74
2022/09/28 09:18:48;;;;;;;;;;;;;;;10.10;100.00;99616.38;5047207;28;20346;-74
2022/09/28 09:21:14;;;;;;;;;;;;;;;10.15;100.00;99623.03;5048878;28;20323;-74
2022/09/28 09:23:43;;;;;;;;;;;;;;;10.14;100.00;99618.72;5046793;28;19967;-75
2022/09/28 09:26:19;;;;;;;;;;;;;;;10.18;100.00;99624.66;5045550;28;21985;-73
2022/09/28 09:28:45;;;;;;;;;;;;;;;10.26;100.00;99624.19;5047457;28;20632;-73
2022/09/28 09:31:10;;;;;;;;;;;;;;;10.32;100.00;99629.09;5047900;28;20114;-73
2022/09/28 09:33:48;;;;;;;;;;;;;;;10.38;100.00;99631.34;5046975;28;20704;-74
2022/09/28 09:36:19;;;;;;;;;;;;;;;10.48;100.00;99633.41;5047402;28;20165;-73
2022/09/28 09:38:44;;;;;;;;;;;;;;;10.54;100.00;99640.97;5047704;28;19928;-73
2022/09/28 09:41:25;;;;;;;;;;;;;;;10.59;100.00;99642.34;5047032;28;20033;-74
2022/09/28 09:44:17;;;;;;;;;;;;;;;10.63;100.00;99643.03;5044668;28;19977;-74
2022/09/28 09:46:43;;;;;;;;;;;;;;;10.66;100.00;99645.47;5076000;28;20474;-73
2022/09/28 09:49:14;;;;;;;;;;;;;;;10.70;100.00;99644.31;5046732;28;19932;-73
2022/09/28 09:51:48;;;;;;;;;;;;;;;10.76;100.00;99643.06;5048360;28;20299;-74
2022/09/28 09:54:33;;;;;;;;;;;;;;;10.82;100.00;99647.09;5045313;28;20398;-74
2022/09/28 09:57:04;;;;;;;;;;;;;;;10.87;100.00;99645.00;5046468;28;19924;-73
2022/09/28 09:59:32;;;;;;;;;;;;;;;10.86;100.00;99648.59;5046005;28;20291;-73
2022/09/28 10:01:59;;;;;;;;;;;;;;;10.90;100.00;99644.78;5046912;28;19928;-73
2022/09/28 10:04:26;;;;;;;;;;;;;;;10.97;100.00;99646.13;5060895;28;20082;-73
2022/09/28 10:06:54;;;;;;;;;;;;;;;11.04;100.00;99646.53;5046094;28;19925;-73
2022/09/28 10:09:24;;;;;;;;;;;;;;;11.07;100.00;99645.50;5044662;28;19963;-73
2022/09/28 10:11:50;;;;;;;;;;;;;;;11.06;100.00;99649.91;5045798;28;20346;-74
2022/09/28 10:14:21;;;;;;;;;;;;;;;11.06;100.00;99643.78;5047071;28;20594;-73
2022/09/28 10:16:47;;;;;;;;;;;;;;;11.05;100.00;99647.41;5046812;28;19929;-73
2022/09/28 10:19:13;;;;;;;;;;;;;;;11.04;100.00;99643.88;5044949;28;19929;-73
2022/09/28 10:21:39;;;;;;;;;;;;;;;11.05;100.00;99642.09;5028708;28;19979;-73
2022/09/28 10:24:07;;;;;;;;;;;;;;;11.06;100.00;99655.22;5043621;28;20142;-73
2022/09/28 10:26:36;;;;;;;;;;;;;;;11.07;100.00;99656.09;5060970;28;19936;-73
2022/09/28 10:29:12;;;;;;;;;;;;;;;11.11;100.00;99647.00;5041904;28;19933;-73
2022/09/28 10:31:41;;;;;;;;;;;;;;;11.15;100.00;99648.47;5028714;28;20027;-73
2022/09/28 10:34:07;;;;;;;;;;;;;;;11.16;100.00;99650.16;5046268;28;19928;-73
2022/09/28 10:36:41;;;;;;;;;;;;;;;11.21;100.00;99650.72;5045622;28;19963;-73
2022/09/28 10:39:18;;;;;;;;;;;;;;;11.27;100.00;99652.09;5044507;28;19928;-73
2022/09/28 10:41:47;;;;;;;;;;;;;;;11.34;100.00;99650.72;5077964;28;19925;-74
2022/09/28 10:44:14;;;;;;;;;;;;;;;11.43;100.00;99643.13;5060697;28;20565;-73
2022/09/28 10:46:39;;;;;;;;;;;;;;;11.47;100.00;99650.75;5037519;28;19925;-74
2022/09/28 10:49:05;;;;;;;;;;;;;;;11.50;100.00;99653.19;5045911;28;19932;-74
2022/09/28 10:51:48;;;;;;;;;;;;;;;11.50;100.00;99650.53;5061297;28;20284;-74
2022/09/28 10:54:13;;;;;;;;;;;;;;;11.47;100.00;99650.75;5047107;28;19925;-73
2022/09/28 10:56:39;;;;;;;;;;;;;;;11.46;100.00;99656.16;5045807;28;19932;-74
2022/09/28 10:59:34;;;;;;;;;;;;;;;11.43;100.00;99659.84;5045543;28;19982;-73
2022/09/28 11:02:07;;;;;;;;;;;;;;;11.39;100.00;99645.97;5062035;28;20382;-73
2022/09/28 11:04:35;;;;;;;;;;;;;;;11.35;100.00;99652.44;5044328;28;20406;-73
2022/09/28 11:07:00;;;;;;;;;;;;;;;11.32;100.00;99655.28;5047330;28;19924;-73
2022/09/28 11:09:33;;;;;;;;;;;;;;;11.34;100.00;99655.19;5045371;28;19931;-73
2022/09/28 11:11:59;;;;;;;;;;;;;;;11.37;100.00;99653.19;5047473;28;20833;-73
2022/09/28 11:14:30;;;;;;;;;;;;;;;11.44;100.00;99647.47;5061106;28;20544;-74
2022/09/28 11:17:31;;;;;;;;;;;;;;;11.53;100.00;99647.69;5046382;28;19925;-74
2022/09/28 11:19:58;;;;;;;;;;;;;;;11.62;100.00;99651.50;4993400;28;19925;-73
2022/09/28 11:22:27;;;;;;;;;;;;;;;11.71;100.00;99655.31;5035871;28;20516;-73
2022/09/28 11:25:12;;;;;;;;;;;;;;;11.74;100.00;99655.09;5045151;28;19964;-73
2022/09/28 11:27:37;;;;;;;;;;;;;;;11.78;100.00;99655.75;5046514;28;19935;-73
2022/09/28 11:30:03;;;;;;;;;;;;;;;11.86;100.00;99657.84;5044205;28;19928;-73
2022/09/28 11:32:29;;;;;;;;;;;;;;;12.02;100.00;99647.00;5047264;28;20181;-74
2022/09/28 11:34:55;;;;;;;;;;;;;;;12.08;100.00;99655.44;5043802;28;20319;-74
2022/09/28 11:37:40;;;;;;;;;;;;;;;12.23;100.00;99657.94;5045725;28;20418;-74
2022/09/28 11:40:19;;;;;;;;;;;;;;;12.38;100.00;99655.13;5044551;28;19925;-74
2022/09/28 11:42:58;;;;;;;;;;;;;;;12.41;99.07;99652.28;5044355;28;19974;-74
2022/09/28 11:45:39;;;;;;;;;;;;;;;12.39;97.87;99656.84;5043921;28;19932;-74
2022/09/28 11:48:09;;;;;;;;;;;;;;;12.34;97.38;99659.81;5044109;28;19925;-74
2022/09/28 11:50:41;;;;;;;;;;;;;;;12.33;95.11;99653.66;5043810;28;19967;-74
2022/09/28 11:53:12;;;;;;;;;;;;;;;12.39;97.16;99654.19;5045107;28;19932;-79
2022/09/28 11:55:37;;;;;;;;;;;;;;;12.45;95.38;99659.91;5044766;28;20696;-79
2022/09/28 11:58:07;;;;;;;;;;;;;;;12.53;94.29;99651.38;5045750;28;19940;-82
2022/09/28 12:00:34;;;;;;;;;;;;;;;12.58;95.84;99654.53;5027605;28;19974;-80
2022/09/28 12:03:03;;;;;;;;;;;;;;;12.67;97.24;99654.81;5044588;28;19928;-78
2022/09/28 12:05:36;;;;;;;;;;;;;;;12.71;100.00;99651.00;5044167;28;20425;-79
2022/09/28 12:08:14;;;;;;;;;;;;;;;12.70;99.86;99652.78;5048279;28;20044;-77
2022/09/28 12:10:54;;;;;;;;;;;;;;;12.74;99.00;99656.06;5046727;28;19921;-79
2022/09/28 12:13:27;;;;;;;;;;;;;;;12.80;98.12;99650.31;5059900;28;19934;-79
2022/09/28 12:15:55;;;;;;;;;;;;;;;12.88;99.80;99653.25;5060902;28;20242;-79
2022/09/28 12:18:23;;;;;;;;;;;;;;;12.96;99.12;99654.50;5045261;28;19936;-76
2022/09/28 12:21:16;;;;;;;;;;;;;;;13.08;99.85;99642.94;5078756;28;19928;-78
2022/09/28 12:23:42;;;;;;;;;;;;;;;13.31;95.50;99657.13;5041188;28;19925;-79
2022/09/28 12:26:15;;;;;;;;;;;;;;;13.46;94.82;99650.81;5042393;28;19963;-79
2022/09/28 12:28:47;;;;;;;;;;;;;;;13.53;94.80;99654.69;5045203;28;19928;-79
2022/09/28 12:31:14;;;;;;;;;;;;;;;13.56;95.46;99649.13;5061117;28;19928;-79
2022/09/28 12:33:40;;;;;;;;;;;;;;;13.48;95.97;99651.53;5043955;28;19931;-79
2022/09/28 12:36:09;;;;;;;;;;;;;;;13.34;96.68;99653.41;5024876;28;20341;-78
2022/09/28 12:38:43;;;;;;;;;;;;;;;13.21;97.99;99657.94;5044846;28;19925;-79
2022/09/28 12:41:15;;;;;;;;;;;;;;;13.07;98.15;99657.19;5046864;28;19928;-77
2022/09/28 12:44:00;;;;;;;;;;;;;;;12.95;98.36;99664.25;5046969;28;19960;-78
2022/09/28 12:46:26;;;;;;;;;;;;;;;12.86;98.99;99657.81;5063237;28;19936;-79
2022/09/28 12:48:55;;;;;;;;;;;;;;;12.76;97.76;99662.13;5046368;28;20412;-79
2022/09/28 12:51:23;;;;;;;;;;;;;;;12.70;98.54;99657.28;5048394;28;19932;-78
2022/09/28 12:54:00;;;;;;;;;;;;;;;12.66;99.01;99659.31;5048876;28;19928;-78
2022/09/28 12:56:34;;;;;;;;;;;;;;;12.61;98.31;99662.31;5047125;28;19928;-79
2022/09/28 12:59:20;;;;;;;;;;;;;;;12.56;98.79;99656.47;5051041;28;19987;-78
2022/09/28 13:01:58;;;;;;;;;;;;;;;12.51;99.09;99658.59;5047638;28;19924;-78